Time;durP1;ratioP1;P1;durP2;ratioP2;P2;SDS_P1;SDS_P2;PMS_P1;PMS_P2;Temp;Humidity;BMP_temperature;BMP_pressure;BME280_temperature;BME280_humidity;BME280_pressure;Samples;Min_cycle;Max_cycle;Signal;HPM_P1;HPM_P2
2021/01/29 00:00:35;;;;;;;40.00;21.45;;;;;;;;;;5052058;28;20013;-80
2021/01/29 00:03:02;;;;;;;36.58;19.67;;;;;;;;;;5034208;28;20033;-79
2021/01/29 00:05:31;;;;;;;42.83;22.15;;;;;;;;;;5034055;28;20033;-79
2021/01/29 00:07:57;;;;;;;44.78;23.13;;;;;;;;;;5034293;28;20043;-79
2021/01/29 00:10:23;;;;;;;34.35;18.95;;;;;;;;;;5033941;28;20094;-79
2021/01/29 00:12:49;;;;;;;45.88;22.67;;;;;;;;;;5052047;28;20092;-79
2021/01/29 00:15:17;;;;;;;41.08;19.83;;;;;;;;;;5034219;28;20071;-79
2021/01/29 00:17:43;;;;;;;36.70;18.63;;;;;;;;;;5033740;28;20103;-79
2021/01/29 00:20:10;;;;;;;42.25;22.25;;;;;;;;;;5034244;28;20112;-79
2021/01/29 00:22:36;;;;;;;47.50;23.77;;;;;;;;;;5033926;28;20087;-79
2021/01/29 00:25:04;;;;;;;36.88;20.25;;;;;;;;;;5034146;28;20025;-79
2021/01/29 00:27:30;;;;;;;45.80;21.33;;;;;;;;;;5033857;28;20056;-78
2021/01/29 00:29:56;;;;;;;46.50;24.63;;;;;;;;;;5034074;28;20057;-79
2021/01/29 00:32:22;;;;;;;39.17;20.98;;;;;;;;;;5033975;28;20013;-79
2021/01/29 00:34:48;;;;;;;29.08;15.27;;;;;;;;;;5051574;28;20487;-78
2021/01/29 00:37:14;;;;;;;33.92;18.70;;;;;;;;;;5033726;28;20044;-79
2021/01/29 00:39:40;;;;;;;35.38;19.35;;;;;;;;;;5033797;28;20021;-79
2021/01/29 00:42:06;;;;;;;49.80;21.83;;;;;;;;;;5033604;28;20484;-79
2021/01/29 00:44:32;;;;;;;56.33;26.60;;;;;;;;;;5033760;28;20021;-79
2021/01/29 00:46:58;;;;;;;53.15;25.45;;;;;;;;;;5033882;28;20025;-78
2021/01/29 00:49:24;;;;;;;53.97;25.33;;;;;;;;;;5033238;28;20017;-79
2021/01/29 00:51:50;;;;;;;64.53;26.50;;;;;;;;;;5033897;28;20039;-79
2021/01/29 00:54:16;;;;;;;48.08;22.92;;;;;;;;;;5033792;28;20032;-80
2021/01/29 00:56:42;;;;;;;64.47;25.33;;;;;;;;;;5033295;28;20111;-79
2021/01/29 00:59:08;;;;;;;74.35;26.70;;;;;;;;;;5036907;28;20121;-79
2021/01/29 01:01:34;;;;;;;63.30;24.25;;;;;;;;;;5037270;28;20392;-79
2021/01/29 01:04:00;;;;;;;92.47;27.10;;;;;;;;;;5055218;28;20021;-79
2021/01/29 01:06:26;;;;;;;83.28;28.70;;;;;;;;;;5037283;28;20013;-79
2021/01/29 01:08:52;;;;;;;49.05;20.80;;;;;;;;;;5037319;28;20495;-79
2021/01/29 01:11:18;;;;;;;45.40;20.17;;;;;;;;;;5037461;28;20120;-79
2021/01/29 01:13:44;;;;;;;58.33;21.80;;;;;;;;;;5036995;28;20029;-79
2021/01/29 01:16:10;;;;;;;59.10;24.27;;;;;;;;;;5037049;28;20461;-78
2021/01/29 01:18:36;;;;;;;104.05;31.92;;;;;;;;;;5036962;28;20025;-80
2021/01/29 01:21:03;;;;;;;100.78;29.65;;;;;;;;;;5037114;28;20040;-80
2021/01/29 01:23:29;;;;;;;56.15;24.70;;;;;;;;;;5036794;28;20485;-79
2021/01/29 01:25:55;;;;;;;102.40;30.27;;;;;;;;;;5054739;28;20009;-79
2021/01/29 01:28:21;;;;;;;68.13;22.38;;;;;;;;;;5054910;28;20021;-79
2021/01/29 01:30:47;;;;;;;62.97;25.48;;;;;;;;;;5036839;28;20021;-79
2021/01/29 01:33:13;;;;;;;98.50;29.20;;;;;;;;;;5036918;28;20112;-79
2021/01/29 01:35:39;;;;;;;61.83;24.45;;;;;;;;;;5036658;28;20017;-79
2021/01/29 01:38:06;;;;;;;67.88;28.80;;;;;;;;;;5036666;28;20047;-79
2021/01/29 01:40:36;;;;;;;132.57;28.90;;;;;;;;;;5036567;28;20119;-79
2021/01/29 01:43:03;;;;;;;46.25;21.00;;;;;;;;;;5036692;28;20036;-79
2021/01/29 01:45:29;;;;;;;118.28;31.85;;;;;;;;;;5036627;28;20021;-80
2021/01/29 01:48:02;;;;;;;83.22;29.63;;;;;;;;;;5054187;28;20017;-80
2021/01/29 01:50:31;;;;;;;76.75;30.20;;;;;;;;;;5036429;28;20013;-80
2021/01/29 01:52:58;;;;;;;73.55;26.73;;;;;;;;;;5054430;28;20138;-80
2021/01/29 01:55:26;;;;;;;47.85;20.98;;;;;;;;;;5036572;28;20028;-80
2021/01/29 01:57:54;;;;;;;81.47;26.17;;;;;;;;;;5036325;28;20017;-80
2021/01/29 02:00:25;;;;;;;44.63;19.73;;;;;;;;;;5036490;28;20028;-80
2021/01/29 02:02:54;;;;;;;50.25;20.25;;;;;;;;;;5036123;28;20021;-80
2021/01/29 02:05:29;;;;;;;57.45;22.50;;;;;;;;;;5036380;28;20078;-80
2021/01/29 02:07:59;;;;;;;70.38;27.33;;;;;;;;;;5036352;28;20025;-81
2021/01/29 02:10:25;;;;;;;;;;;;;;;;;;5035780;28;20079;-79
2021/01/29 02:12:51;;;;;;;51.70;20.00;;;;;;;;;;5035749;28;19964;-80
2021/01/29 02:15:18;;;;;;;54.78;21.02;;;;;;;;;;5036248;28;20046;-80
2021/01/29 02:17:55;;;;;;;51.65;23.85;;;;;;;;;;5035954;28;20511;-80
2021/01/29 02:20:21;;;;;;;115.18;29.67;;;;;;;;;;5036039;28;20028;-80
2021/01/29 02:23:06;;;;;;;51.47;23.52;;;;;;;;;;5035844;28;20020;-79
2021/01/29 02:25:32;;;;;;;72.20;28.08;;;;;;;;;;5035639;28;20049;-80
2021/01/29 02:28:00;;;;;;;127.70;32.03;;;;;;;;;;5054105;28;20053;-79
2021/01/29 02:30:35;;;;;;;87.63;30.95;;;;;;;;;;5035809;28;20017;-79
2021/01/29 02:33:01;;;;;;;93.50;29.92;;;;;;;;;;5035840;28;20120;-79
2021/01/29 02:35:54;;;;;;;72.82;29.90;;;;;;;;;;5035810;28;20017;-80
2021/01/29 02:38:32;;;;;;;73.32;28.90;;;;;;;;;;5053373;28;20062;-79
2021/01/29 02:41:21;;;;;;;60.45;26.80;;;;;;;;;;5053642;28;20025;-80
2021/01/29 02:44:09;;;;;;;66.45;28.15;;;;;;;;;;5053216;28;20021;-80
2021/01/29 02:46:47;;;;;;;68.35;27.77;;;;;;;;;;5053144;28;20366;-80
2021/01/29 02:49:22;;;;;;;34.88;15.38;;;;;;;;;;5035457;28;20013;-79
2021/01/29 02:51:53;;;;;;;46.22;20.95;;;;;;;;;;5035212;28;20021;-80
2021/01/29 02:54:34;;;;;;;59.55;25.83;;;;;;;;;;5035288;28;20047;-79
2021/01/29 02:57:04;;;;;;;81.18;30.80;;;;;;;;;;5035387;28;20115;-82
2021/01/29 02:59:30;;;;;;;69.00;28.95;;;;;;;;;;5035277;28;20048;-80
2021/01/29 03:01:58;;;;;;;72.10;28.73;;;;;;;;;;5035285;28;20028;-79
2021/01/29 03:04:36;;;;;;;43.80;20.10;;;;;;;;;;5035248;28;20119;-80
2021/01/29 03:07:06;;;;;;;40.92;19.95;;;;;;;;;;5035224;28;20017;-80
2021/01/29 03:09:53;;;;;;;97.13;31.58;;;;;;;;;;5053141;28;20021;-81
2021/01/29 03:12:28;;;;;;;67.93;24.02;;;;;;;;;;5035112;28;20044;-80
2021/01/29 03:14:59;;;;;;;69.80;27.88;;;;;;;;;;5034866;28;20028;-80
2021/01/29 03:17:28;;;;;;;59.25;26.00;;;;;;;;;;5053147;28;20122;-80
2021/01/29 03:19:57;;;;;;;67.00;29.17;;;;;;;;;;5034762;28;20020;-80
2021/01/29 03:22:25;;;;;;;66.53;27.85;;;;;;;;;;5034909;28;20051;-80
2021/01/29 03:24:54;;;;;;;50.78;23.17;;;;;;;;;;5034728;28;20021;-80
2021/01/29 03:27:23;;;;;;;50.78;23.33;;;;;;;;;;5034885;28;20021;-80
2021/01/29 03:29:52;;;;;;;49.55;23.83;;;;;;;;;;5034601;28;20059;-80
2021/01/29 03:32:19;;;;;;;44.17;21.55;;;;;;;;;;5052415;28;20618;-81
2021/01/29 03:34:48;;;;;;;34.00;17.48;;;;;;;;;;5034437;28;20020;-81
2021/01/29 03:37:25;;;;;;;60.10;26.60;;;;;;;;;;5031173;28;20367;-80
2021/01/29 03:39:51;;;;;;;51.00;22.60;;;;;;;;;;5032543;28;20335;-80
2021/01/29 03:42:25;;;;;;;50.38;18.17;;;;;;;;;;5031348;28;20017;-80
2021/01/29 03:45:18;;;;;;;56.22;24.73;;;;;;;;;;5031090;28;20025;-80
2021/01/29 03:47:54;;;;;;;39.60;19.27;;;;;;;;;;5026253;28;20462;-79
2021/01/29 03:50:39;;;;;;;56.65;24.42;;;;;;;;;;5031337;28;20018;-79
2021/01/29 03:53:08;;;;;;;59.42;24.10;;;;;;;;;;5028892;28;20466;-80
2021/01/29 03:55:47;;;;;;;33.72;19.30;;;;;;;;;;5031100;28;20064;-80
2021/01/29 03:58:33;;;;;;;42.40;20.08;;;;;;;;;;5032483;28;20024;-79
2021/01/29 04:00:59;;;;;;;47.50;20.85;;;;;;;;;;5032288;28;20438;-79
2021/01/29 04:03:35;;;;;;;45.88;21.52;;;;;;;;;;5032444;28;20021;-80
2021/01/29 04:06:07;;;;;;;47.63;23.63;;;;;;;;;;5030984;28;20480;-79
2021/01/29 04:08:36;;;;;;;45.35;20.83;;;;;;;;;;5030974;28;20112;-79
2021/01/29 04:11:04;;;;;;;30.20;15.90;;;;;;;;;;5030939;28;20362;-79
2021/01/29 04:13:48;;;;;;;45.25;21.85;;;;;;;;;;5030990;28;20541;-79
2021/01/29 04:16:20;;;;;;;45.78;21.80;;;;;;;;;;5030991;28;20021;-80
2021/01/29 04:18:48;;;;;;;44.13;19.88;;;;;;;;;;5030693;28;20025;-80
2021/01/29 04:21:17;;;;;;;25.38;13.48;;;;;;;;;;5031001;28;20064;-79
2021/01/29 04:23:46;;;;;;;45.72;21.13;;;;;;;;;;5030731;28;20497;-79
2021/01/29 04:26:14;;;;;;;29.02;15.70;;;;;;;;;;5030786;28;20025;-80
2021/01/29 04:28:43;;;;;;;45.83;19.65;;;;;;;;;;5031919;28;20028;-80
2021/01/29 04:31:10;;;;;;;35.40;17.90;;;;;;;;;;5030793;28;20014;-80
2021/01/29 04:33:39;;;;;;;38.65;19.67;;;;;;;;;;5032971;28;20034;-79
2021/01/29 04:36:06;;;;;;;43.85;19.17;;;;;;;;;;5034782;28;20013;-79
2021/01/29 04:38:36;;;;;;;31.30;17.15;;;;;;;;;;5050831;28;20096;-80
2021/01/29 04:41:02;;;;;;;21.60;12.10;;;;;;;;;;5038015;28;20021;-80
2021/01/29 04:43:47;;;;;;;30.95;16.17;;;;;;;;;;5037871;28;20029;-80
2021/01/29 04:46:25;;;;;;;39.13;19.40;;;;;;;;;;5038069;28;20082;-80
2021/01/29 04:48:54;;;;;;;23.60;12.13;;;;;;;;;;5055523;28;20017;-80
2021/01/29 04:51:45;;;;;;;32.53;18.08;;;;;;;;;;5037881;28;20024;-81
2021/01/29 04:54:30;;;;;;;31.42;16.50;;;;;;;;;;5055281;28;20418;-81
2021/01/29 04:57:22;;;;;;;30.05;16.58;;;;;;;;;;5037512;28;20020;-81
2021/01/29 04:59:58;;;;;;;28.05;16.27;;;;;;;;;;5014631;28;20033;-81
2021/01/29 05:02:34;;;;;;;29.27;16.35;;;;;;;;;;5037583;28;20516;-81
2021/01/29 05:05:24;;;;;;;27.40;15.45;;;;;;;;;;5055491;28;20033;-81
2021/01/29 05:08:00;;;;;;;29.33;14.55;;;;;;;;;;5045106;28;20025;-81
2021/01/29 05:10:46;;;;;;;26.33;14.85;;;;;;;;;;5055430;28;20017;-81
2021/01/29 05:13:17;;;;;;;27.25;14.65;;;;;;;;;;5055052;28;20377;-80
2021/01/29 05:15:57;;;;;;;25.35;15.35;;;;;;;;;;5037475;28;20021;-81
2021/01/29 05:18:36;;;;;;;23.02;13.60;;;;;;;;;;5038602;28;20017;-81
2021/01/29 05:21:05;;;;;;;25.05;15.88;;;;;;;;;;5056206;28;20082;-81
2021/01/29 05:23:43;;;;;;;25.05;15.45;;;;;;;;;;5037237;28;20021;-81
2021/01/29 05:26:25;;;;;;;24.00;13.02;;;;;;;;;;5037448;28;20049;-81
2021/01/29 05:29:10;;;;;;;21.95;14.25;;;;;;;;;;5036591;28;20021;-80
2021/01/29 05:31:51;;;;;;;29.13;15.73;;;;;;;;;;5054951;28;20021;-80
2021/01/29 05:34:36;;;;;;;21.10;13.43;;;;;;;;;;5054663;28;20465;-81
2021/01/29 05:37:18;;;;;;;28.52;15.25;;;;;;;;;;5036605;28;20025;-81
2021/01/29 05:40:02;;;;;;;26.52;15.02;;;;;;;;;;5036764;28;20020;-81
2021/01/29 05:42:58;;;;;;;27.92;15.32;;;;;;;;;;5036814;28;20021;-80
2021/01/29 05:45:33;;;;;;;28.25;17.42;;;;;;;;;;4982335;28;20035;-81
2021/01/29 05:47:59;;;;;;;32.83;16.45;;;;;;;;;;5036560;28;20130;-81
2021/01/29 05:50:33;;;;;;;26.10;16.30;;;;;;;;;;5036733;28;20453;-81
2021/01/29 05:53:06;;;;;;;29.75;17.15;;;;;;;;;;5036256;28;20113;-81
2021/01/29 05:55:42;;;;;;;31.33;17.58;;;;;;;;;;5036833;28;20523;-81
2021/01/29 05:58:27;;;;;;;26.77;16.90;;;;;;;;;;5036784;28;20025;-83
2021/01/29 06:00:55;;;;;;;16.08;10.52;;;;;;;;;;5036548;28;20021;-81
2021/01/29 06:03:34;;;;;;;24.42;13.85;;;;;;;;;;5036595;28;20021;-79
2021/01/29 06:06:06;;;;;;;23.98;12.73;;;;;;;;;;5053916;28;20127;-81
2021/01/29 06:08:51;;;;;;;22.65;12.77;;;;;;;;;;5036325;28;20059;-81
2021/01/29 06:11:25;;;;;;;23.25;13.57;;;;;;;;;;5036332;28;20021;-81
2021/01/29 06:14:10;;;;;;;24.35;14.20;;;;;;;;;;5035930;28;20029;-80
2021/01/29 06:16:42;;;;;;;26.02;14.13;;;;;;;;;;5036384;28;20026;-81
2021/01/29 06:19:27;;;;;;;22.77;12.10;;;;;;;;;;5036255;28;20024;-81
2021/01/29 06:21:56;;;;;;;21.42;12.20;;;;;;;;;;5051507;28;20028;-80
2021/01/29 06:24:37;;;;;;;21.85;11.45;;;;;;;;;;5024974;28;20037;-82
2021/01/29 06:27:09;;;;;;;18.10;10.70;;;;;;;;;;5046661;28;20048;-80
2021/01/29 06:29:38;;;;;;;17.50;9.77;;;;;;;;;;5035935;28;20017;-81
2021/01/29 06:32:22;;;;;;;18.48;9.75;;;;;;;;;;5035638;28;20029;-81
2021/01/29 06:35:07;;;;;;;14.43;8.88;;;;;;;;;;5035530;28;20473;-81
2021/01/29 06:37:48;;;;;;;11.02;7.18;;;;;;;;;;5035480;28;20045;-80
2021/01/29 06:40:33;;;;;;;12.35;8.13;;;;;;;;;;5035717;28;20071;-80
2021/01/29 06:43:18;;;;;;;13.45;8.05;;;;;;;;;;5035475;28;20025;-80
2021/01/29 06:45:50;;;;;;;13.55;8.18;;;;;;;;;;5035568;28;20025;-81
2021/01/29 06:48:35;;;;;;;12.48;7.88;;;;;;;;;;5035958;28;20346;-80
2021/01/29 06:51:40;;;;;;;12.23;8.07;;;;;;;;;;5035403;28;20388;-82
2021/01/29 06:54:26;;;;;;;12.25;6.43;;;;;;;;;;4971858;28;20127;-82
2021/01/29 06:57:03;;;;;;;9.48;5.00;;;;;;;;;;4926818;28;20392;-81
2021/01/29 06:59:32;;;;;;;15.43;7.30;;;;;;;;;;5010307;28;20032;-82
2021/01/29 07:02:07;;;;;;;10.95;6.65;;;;;;;;;;5035061;28;20020;-81
2021/01/29 07:04:36;;;;;;;10.25;6.57;;;;;;;;;;5053331;28;20032;-81
2021/01/29 07:07:08;;;;;;;13.82;6.80;;;;;;;;;;5035682;28;20083;-81
2021/01/29 07:09:43;;;;;;;10.50;6.57;;;;;;;;;;5035063;28;20084;-81
2021/01/29 07:12:30;;;;;;;13.35;6.35;;;;;;;;;;5034884;28;20453;-81
2021/01/29 07:15:06;;;;;;;10.77;6.85;;;;;;;;;;5052777;28;20028;-81
2021/01/29 07:17:38;;;;;;;10.40;6.07;;;;;;;;;;5052768;28;20021;-81
2021/01/29 07:20:13;;;;;;;14.18;6.95;;;;;;;;;;5052772;28;20020;-82
2021/01/29 07:22:46;;;;;;;13.73;6.20;;;;;;;;;;5034969;28;20020;-82
2021/01/29 07:25:21;;;;;;;12.43;7.70;;;;;;;;;;5034835;28;20017;-82
2021/01/29 07:27:59;;;;;;;15.45;9.75;;;;;;;;;;5034021;28;20049;-82
2021/01/29 07:30:31;;;;;;;14.85;8.02;;;;;;;;;;5033553;28;20021;-82
2021/01/29 07:33:04;;;;;;;12.60;7.32;;;;;;;;;;5048553;28;20033;-82
2021/01/29 07:35:49;;;;;;;11.07;7.82;;;;;;;;;;5051205;28;20151;-81
2021/01/29 07:38:27;;;;;;;10.98;6.78;;;;;;;;;;5030477;28;20036;-81
2021/01/29 07:40:59;;;;;;;13.05;7.65;;;;;;;;;;5048074;28;20024;-82
2021/01/29 07:43:41;;;;;;;10.95;7.43;;;;;;;;;;5050112;28;20060;-82
2021/01/29 07:46:10;;;;;;;10.93;6.85;;;;;;;;;;5031731;28;20017;-81
2021/01/29 07:48:42;;;;;;;12.90;6.63;;;;;;;;;;5051099;28;20049;-82
2021/01/29 07:51:11;;;;;;;11.38;5.20;;;;;;;;;;5030861;28;20477;-82
2021/01/29 07:53:41;;;;;;;5.60;2.20;;;;;;;;;;5033544;28;20445;-81
2021/01/29 07:56:10;;;;;;;6.43;3.65;;;;;;;;;;5051902;28;20035;-81
2021/01/29 07:58:55;;;;;;;5.53;3.00;;;;;;;;;;5034193;28;20024;-80
2021/01/29 08:01:36;;;;;;;8.70;3.60;;;;;;;;;;5034186;28;20101;-81
2021/01/29 08:04:08;;;;;;;6.63;3.72;;;;;;;;;;5033535;28;20040;-82
2021/01/29 08:06:47;;;;;;;8.85;4.40;;;;;;;;;;5052542;28;20013;-79
2021/01/29 08:09:16;;;;;;;9.68;4.75;;;;;;;;;;5033133;28;20016;-78
2021/01/29 08:11:44;;;;;;;7.97;3.58;;;;;;;;;;5030640;28;20017;-79
2021/01/29 08:14:10;;;;;;;7.13;4.22;;;;;;;;;;5032774;28;20025;-79
2021/01/29 08:16:48;;;;;;;17.90;4.00;;;;;;;;;;5032960;28;20029;-79
2021/01/29 08:19:14;;;;;;;8.90;5.32;;;;;;;;;;5033174;28;20013;-79
2021/01/29 08:21:58;;;;;;;7.78;4.38;;;;;;;;;;5033051;28;20024;-79
2021/01/29 08:24:38;;;;;;;10.60;6.00;;;;;;;;;;5031060;28;20052;-78
2021/01/29 08:27:23;;;;;;;7.60;4.45;;;;;;;;;;5030608;28;20100;-79
2021/01/29 08:30:08;;;;;;;11.13;5.57;;;;;;;;;;5031249;28;20021;-78
2021/01/29 08:32:40;;;;;;;15.75;6.05;;;;;;;;;;5032023;28;20054;-78
2021/01/29 08:35:06;;;;;;;9.55;4.25;;;;;;;;;;5048410;28;20046;-78
2021/01/29 08:37:41;;;;;;;15.30;7.47;;;;;;;;;;5032756;28;20539;-79
2021/01/29 08:40:08;;;;;;;10.73;4.88;;;;;;;;;;5030885;28;20477;-79
2021/01/29 08:42:43;;;;;;;12.70;5.10;;;;;;;;;;5032829;28;20021;-79
2021/01/29 08:45:23;;;;;;;14.95;5.03;;;;;;;;;;5031026;28;20419;-78
2021/01/29 08:47:51;;;;;;;9.00;4.43;;;;;;;;;;5025503;28;20013;-78
2021/01/29 08:50:29;;;;;;;11.45;4.38;;;;;;;;;;5032672;28;20365;-79
2021/01/29 08:53:04;;;;;;;11.07;3.83;;;;;;;;;;5032257;28;20047;-79
2021/01/29 08:55:42;;;;;;;8.13;3.05;;;;;;;;;;5032006;28;20021;-78
2021/01/29 08:58:08;;;;;;;14.48;5.13;;;;;;;;;;5033514;28;20021;-78
2021/01/29 09:00:35;;;;;;;15.88;4.40;;;;;;;;;;5032333;28;20100;-80
2021/01/29 09:03:10;;;;;;;15.43;3.97;;;;;;;;;;5034997;28;20068;-79
2021/01/29 09:05:39;;;;;;;18.08;4.50;;;;;;;;;;5035110;28;20017;-81
2021/01/29 09:08:07;;;;;;;17.17;5.60;;;;;;;;;;5034644;28;20021;-80
2021/01/29 09:10:33;;;;;;;18.38;3.60;;;;;;;;;;5034467;28;20111;-79
2021/01/29 09:13:01;;;;;;;16.48;4.63;;;;;;;;;;5035119;28;20032;-80
2021/01/29 09:15:33;;;;;;;26.23;5.45;;;;;;;;;;5035054;28;20025;-80
2021/01/29 09:18:04;;;;;;;18.63;4.90;;;;;;;;;;5035156;28;20109;-82
2021/01/29 09:20:31;;;;;;;;;;;;;;;;;;5040764;28;20045;-82
2021/01/29 09:23:09;;;;;;;18.70;3.47;;;;;;;;;;5056727;28;19908;-79
2021/01/29 09:25:35;;;;;;;20.17;4.63;;;;;;;;;;5056650;28;20023;-80
2021/01/29 09:28:04;;;;;;;25.00;4.50;;;;;;;;;;5038854;28;20028;-81
2021/01/29 09:30:32;;;;;;;20.08;5.68;;;;;;;;;;5038638;28;20074;-81
2021/01/29 09:33:09;;;;;;;18.33;4.63;;;;;;;;;;5055559;28;20492;-80
2021/01/29 09:35:38;;;;;;;18.38;4.82;;;;;;;;;;5037893;28;20024;-78
2021/01/29 09:38:07;;;;;;;19.80;3.75;;;;;;;;;;5037967;28;20041;-80
2021/01/29 09:40:36;;;;;;;21.02;5.80;;;;;;;;;;5038503;28;20021;-80
2021/01/29 09:43:09;;;;;;;33.63;6.53;;;;;;;;;;5037575;28;20178;-80
2021/01/29 09:45:39;;;;;;;26.15;4.57;;;;;;;;;;5037646;28;20013;-80
2021/01/29 09:48:06;;;;;;;21.02;4.70;;;;;;;;;;5037515;28;20073;-80
2021/01/29 09:50:33;;;;;;;31.65;5.78;;;;;;;;;;5036621;28;20021;-80
2021/01/29 09:53:05;;;;;;;30.27;6.03;;;;;;;;;;5049636;28;20026;-80
2021/01/29 09:55:49;;;;;;;30.90;5.60;;;;;;;;;;5052924;28;20072;-80
2021/01/29 09:58:31;;;;;;;41.33;7.32;;;;;;;;;;5052579;28;20449;-80
2021/01/29 10:01:09;;;;;;;33.10;6.70;;;;;;;;;;5052837;28;20449;-79
2021/01/29 10:03:38;;;;;;;39.08;6.75;;;;;;;;;;5055401;28;20017;-81
2021/01/29 10:06:13;;;;;;;37.08;6.43;;;;;;;;;;5053934;28;20024;-79
2021/01/29 10:08:41;;;;;;;40.97;9.05;;;;;;;;;;5053815;28;20021;-79
2021/01/29 10:11:22;;;;;;;29.25;5.07;;;;;;;;;;5055445;28;20116;-80
2021/01/29 10:14:06;;;;;;;38.50;8.00;;;;;;;;;;5055093;28;20025;-79
2021/01/29 10:16:51;;;;;;;36.10;6.25;;;;;;;;;;5055618;28;20021;-80
2021/01/29 10:19:17;;;;;;;39.97;7.68;;;;;;;;;;5053900;28;20460;-80
2021/01/29 10:22:03;;;;;;;34.33;6.07;;;;;;;;;;5054620;28;20021;-82
2021/01/29 10:24:38;;;;;;;32.97;5.72;;;;;;;;;;5054464;28;20500;-81
2021/01/29 10:27:25;;;;;;;33.05;5.15;;;;;;;;;;5054111;28;20048;-83
2021/01/29 10:30:01;;;;;;;26.90;5.25;;;;;;;;;;5021950;28;20083;-82
2021/01/29 10:32:33;;;;;;;36.75;6.15;;;;;;;;;;5061324;28;20017;-83
2021/01/29 10:35:04;;;;;;;39.03;7.03;;;;;;;;;;5037156;28;20119;-82
2021/01/29 10:37:36;;;;;;;31.15;5.63;;;;;;;;;;5036970;28;20051;-81
2021/01/29 10:40:05;;;;;;;25.02;5.07;;;;;;;;;;5054806;28;20055;-83
2021/01/29 10:42:46;;;;;;;31.17;4.88;;;;;;;;;;5056319;28;20441;-83
2021/01/29 10:45:17;;;;;;;32.47;5.95;;;;;;;;;;5037394;28;20028;-82
2021/01/29 10:47:52;;;;;;;42.25;7.10;;;;;;;;;;5036850;28;20017;-79
2021/01/29 10:50:18;;;;;;;32.25;6.68;;;;;;;;;;5036815;28;20013;-78
2021/01/29 10:52:59;;;;;;;45.35;7.40;;;;;;;;;;5036768;28;20017;-78
2021/01/29 10:55:36;;;;;;;23.08;5.05;;;;;;;;;;5036979;28;20397;-82
2021/01/29 10:58:07;;;;;;;34.45;5.78;;;;;;;;;;5054425;28;20551;-81
2021/01/29 11:00:34;;;;;;;29.20;5.63;;;;;;;;;;5036577;28;20021;-82
2021/01/29 11:03:04;;;;;;;36.13;5.43;;;;;;;;;;5036404;28;20116;-79
2021/01/29 11:05:30;;;;;;;;;;;;;;;;;;5033895;28;20032;-79
2021/01/29 11:08:15;;;;;;;28.60;5.20;;;;;;;;;;5035847;28;19930;-78
2021/01/29 11:10:42;;;;;;;31.27;5.70;;;;;;;;;;5053157;28;20017;-78
2021/01/29 11:13:29;;;;;;;29.45;4.35;;;;;;;;;;5051662;28;20052;-78
2021/01/29 11:16:01;;;;;;;36.50;7.28;;;;;;;;;;5020867;28;20416;-79
2021/01/29 11:18:29;;;;;;;34.85;6.05;;;;;;;;;;5051403;28;20029;-79
2021/01/29 11:21:06;;;;;;;40.60;6.45;;;;;;;;;;5051487;28;20040;-78
2021/01/29 11:23:47;;;;;;;39.55;9.85;;;;;;;;;;5051376;28;20024;-79
2021/01/29 11:26:18;;;;;;;38.38;6.95;;;;;;;;;;5051122;28;20068;-78
2021/01/29 11:29:02;;;;;;;30.20;5.72;;;;;;;;;;5051637;28;20071;-78
2021/01/29 11:31:46;;;;;;;27.65;6.88;;;;;;;;;;5052779;28;20024;-78
2021/01/29 11:34:23;;;;;;;22.05;5.80;;;;;;;;;;5051004;28;20055;-80
2021/01/29 11:37:01;;;;;;;30.50;5.78;;;;;;;;;;5052175;28;20036;-78
2021/01/29 11:39:35;;;;;;;36.03;5.30;;;;;;;;;;5051976;28;20450;-78
2021/01/29 11:42:16;;;;;;;39.17;6.00;;;;;;;;;;5053230;28;20401;-81
2021/01/29 11:44:50;;;;;;;33.30;5.45;;;;;;;;;;5052871;28;20036;-82
2021/01/29 11:47:22;;;;;;;36.10;7.15;;;;;;;;;;5053408;28;20020;-83
2021/01/29 11:50:02;;;;;;;30.63;5.50;;;;;;;;;;5053845;28;20024;-82
2021/01/29 11:52:28;;;;;;;27.70;5.07;;;;;;;;;;5053820;28;20412;-81
2021/01/29 11:54:57;;;;;;;37.00;6.00;;;;;;;;;;5034740;28;20420;-82
2021/01/29 11:57:41;;;;;;;22.65;4.07;;;;;;;;;;5051140;28;20017;-82
2021/01/29 12:00:07;;;;;;;23.88;3.65;;;;;;;;;;5051375;28;20022;-83
2021/01/29 12:02:33;;;;;;;34.33;6.53;;;;;;;;;;5050168;28;20017;-82
2021/01/29 12:05:06;;;;;;;28.40;5.10;;;;;;;;;;5033367;28;20021;-81
2021/01/29 12:07:37;;;;;;;38.20;6.68;;;;;;;;;;5049269;28;20021;-80
2021/01/29 12:10:14;;;;;;;21.65;4.57;;;;;;;;;;5049243;28;20025;-80
2021/01/29 12:13:12;;;;;;;28.85;5.30;;;;;;;;;;5049637;28;20022;-81
2021/01/29 12:15:44;;;;;;;30.92;5.15;;;;;;;;;;4984692;28;20049;-80
2021/01/29 12:18:12;;;;;;;24.60;5.68;;;;;;;;;;5047568;28;20072;-80
2021/01/29 12:20:40;;;;;;;22.17;5.75;;;;;;;;;;5047022;28;20021;-80
2021/01/29 12:23:09;;;;;;;25.75;4.50;;;;;;;;;;5047040;28;20425;-78
2021/01/29 12:25:43;;;;;;;27.38;4.93;;;;;;;;;;5031754;28;20454;-79
2021/01/29 12:28:22;;;;;;;30.10;6.00;;;;;;;;;;5046777;28;20024;-80
2021/01/29 12:30:58;;;;;;;27.50;6.00;;;;;;;;;;5032318;28;20052;-79
2021/01/29 12:33:28;;;;;;;29.88;5.32;;;;;;;;;;5047358;28;20025;-79
2021/01/29 12:35:56;;;;;;;31.00;6.65;;;;;;;;;;5047202;28;20071;-80
2021/01/29 12:38:29;;;;;;;23.70;5.65;;;;;;;;;;5046462;28;20420;-79
2021/01/29 12:41:07;;;;;;;39.05;10.52;;;;;;;;;;5046648;28;20025;-80
2021/01/29 12:43:52;;;;;;;68.97;21.92;;;;;;;;;;5047670;28;20029;-78
2021/01/29 12:46:27;;;;;;;27.80;5.70;;;;;;;;;;5046491;28;20022;-78
2021/01/29 12:49:12;;;;;;;24.48;4.57;;;;;;;;;;5034663;28;20092;-79
2021/01/29 12:51:40;;;;;;;36.45;6.25;;;;;;;;;;5055756;28;20017;-79
2021/01/29 12:54:17;;;;;;;25.02;4.38;;;;;;;;;;5071812;28;20020;-79
2021/01/29 12:56:51;;;;;;;18.95;4.57;;;;;;;;;;5056615;28;20514;-79
2021/01/29 12:59:28;;;;;;;26.40;5.18;;;;;;;;;;5037259;28;20021;-81
2021/01/29 13:01:59;;;;;;;20.92;4.32;;;;;;;;;;5037407;28;20017;-81
2021/01/29 13:04:30;;;;;;;15.70;3.75;;;;;;;;;;5037652;28;20047;-85
2021/01/29 13:07:19;;;;;;;19.27;3.42;;;;;;;;;;5038893;28;20021;-83
2021/01/29 13:09:48;;;;;;;20.55;2.95;;;;;;;;;;5040411;28;20020;-85
2021/01/29 13:12:17;;;;;;;16.33;3.20;;;;;;;;;;5058477;28;20035;-83
2021/01/29 13:15:02;;;;;;;17.70;3.30;;;;;;;;;;5054914;28;20109;-83
2021/01/29 13:17:31;;;;;;;15.00;3.95;;;;;;;;;;5037346;28;20029;-85
2021/01/29 13:20:05;;;;;;;14.23;2.67;;;;;;;;;;5039106;28;20476;-84
2021/01/29 13:22:39;;;;;;;22.27;4.25;;;;;;;;;;5058367;28;20025;-81
2021/01/29 13:25:08;;;;;;;26.33;5.25;;;;;;;;;;5038906;28;20019;-83
2021/01/29 13:27:36;;;;;;;29.27;4.93;;;;;;;;;;5039085;28;20047;-83
2021/01/29 13:30:16;;;;;;;21.63;4.25;;;;;;;;;;5038651;28;20135;-84
2021/01/29 13:32:42;;;;;;;24.13;3.95;;;;;;;;;;5038959;28;20481;-84
2021/01/29 13:35:10;;;;;;;26.52;5.95;;;;;;;;;;5039236;28;20033;-83
2021/01/29 13:37:36;;;;;;;22.75;4.00;;;;;;;;;;5038217;28;20372;-83
2021/01/29 13:40:10;;;;;;;15.48;3.10;;;;;;;;;;5038046;28;20078;-82
2021/01/29 13:42:37;;;;;;;28.00;4.30;;;;;;;;;;5038458;28;20462;-83
2021/01/29 13:45:03;;;;;;;22.58;5.90;;;;;;;;;;5038360;28;20082;-84
2021/01/29 13:47:37;;;;;;;25.38;6.13;;;;;;;;;;5056362;28;20021;-83
2021/01/29 13:50:15;;;;;;;18.85;3.70;;;;;;;;;;5039118;28;20024;-85
2021/01/29 13:52:49;;;;;;;19.77;4.22;;;;;;;;;;5040541;28;20067;-85
2021/01/29 13:55:32;;;;;;;18.85;4.03;;;;;;;;;;5057846;28;20457;-83
2021/01/29 13:58:08;;;;;;;24.35;4.18;;;;;;;;;;5057730;28;20021;-85
2021/01/29 14:00:40;;;;;;;25.92;4.72;;;;;;;;;;5038790;28;20013;-84
2021/01/29 14:03:09;;;;;;;18.45;5.20;;;;;;;;;;5055585;28;20025;-84
2021/01/29 14:05:35;;;;;;;21.55;4.57;;;;;;;;;;5036849;28;20453;-83
2021/01/29 14:08:04;;;;;;;15.13;3.25;;;;;;;;;;5037849;28;20024;-82
2021/01/29 14:10:31;;;;;;;20.35;3.80;;;;;;;;;;5037914;28;20029;-82
2021/01/29 14:13:06;;;;;;;30.67;4.07;;;;;;;;;;5038943;28;20071;-82
2021/01/29 14:15:40;;;;;;;21.30;5.03;;;;;;;;;;5038297;28;20120;-81
2021/01/29 14:18:25;;;;;;;22.88;6.00;;;;;;;;;;5037990;28;20021;-78
2021/01/29 14:21:01;;;;;;;19.35;4.28;;;;;;;;;;5035986;28;20017;-77
2021/01/29 14:23:33;;;;;;;21.13;4.05;;;;;;;;;;5054004;28;20017;-77
2021/01/29 14:26:23;;;;;;;27.92;6.05;;;;;;;;;;5053960;28;20454;-77
2021/01/29 14:28:49;;;;;;;28.88;5.72;;;;;;;;;;5029672;28;20039;-80
2021/01/29 14:31:18;;;;;;;26.38;4.18;;;;;;;;;;5037555;28;20357;-82
2021/01/29 14:34:03;;;;;;;21.02;3.35;;;;;;;;;;5035986;28;20017;-82
2021/01/29 14:36:42;;;;;;;22.80;5.72;;;;;;;;;;5031952;28;20454;-80
2021/01/29 14:39:21;;;;;;;22.48;4.50;;;;;;;;;;5033251;28;20032;-79
2021/01/29 14:41:57;;;;;;;24.73;4.45;;;;;;;;;;5032584;28;20028;-80
2021/01/29 14:44:29;;;;;;;25.13;4.85;;;;;;;;;;5036487;28;20028;-78
2021/01/29 14:47:05;;;;;;;24.23;5.75;;;;;;;;;;5052767;28;20096;-78
2021/01/29 14:49:54;;;;;;;26.23;5.15;;;;;;;;;;5033950;28;20492;-78
2021/01/29 14:52:25;;;;;;;25.30;3.83;;;;;;;;;;5004176;28;20021;-77
2021/01/29 14:55:00;;;;;;;28.70;4.93;;;;;;;;;;5033908;28;20020;-78
2021/01/29 14:57:31;;;;;;;24.08;3.95;;;;;;;;;;5031836;28;20369;-78
2021/01/29 14:59:59;;;;;;;20.92;4.03;;;;;;;;;;5034101;28;20338;-77
2021/01/29 15:02:42;;;;;;;23.83;4.18;;;;;;;;;;5031210;28;20284;-78